Durham, New Hampshire
Current Conditions -  °F | °C
As of 9:21 AM on Tuesday 21 Oct 2014 (Local Time) from KPSM Reporting Station
Overcast Overcast  
Wind Chill: 50°   Ceiling: 1200
Heat Index: 50°   Visibility: 10mi
Dew Point: 45°   Wind: 5mph
Humidity: 82%   Direction: 10°N
Pressure: 30.01"   Gusts: NA
Location:  43.13°N, 70.92°W
Report Text: KPSM 211321Z 01004KT 10SM BKN012 OVC040 10/07 A3001 RMK AO2A
Loading
Personal Weather Stations






























Interactive Weather Map
Tropical Storm Tracking
New forecast layout! Learn more

10-Day Weather Forecast

Advertisements
Track Severe Weather on mobile